createdAt,value
2023-02-11T00:02:42.544Z,2.79
2023-02-11T00:07:45.803Z,2.73
2023-02-11T00:12:49.242Z,2.74
2023-02-11T00:17:52.646Z,2.79
2023-02-11T00:23:08.306Z,2.86
2023-02-11T00:28:14.015Z,2.92
2023-02-11T00:33:17.279Z,2.92
2023-02-11T00:38:20.429Z,2.88
2023-02-11T00:43:23.844Z,2.84
2023-02-11T00:48:27.775Z,2.81
2023-02-11T00:53:32.027Z,2.81
2023-02-11T00:58:36.364Z,2.82
2023-02-11T01:03:40.012Z,2.85
2023-02-11T01:08:46.608Z,2.85
2023-02-11T01:13:51.019Z,2.81
2023-02-11T01:18:54.648Z,2.77
2023-02-11T01:23:57.848Z,2.71
2023-02-11T01:29:01.347Z,2.71
2023-02-11T01:34:04.614Z,2.72
2023-02-11T01:39:10.455Z,2.74
2023-02-11T01:44:40.171Z,2.77
2023-02-11T01:49:48.096Z,2.75
2023-02-11T01:55:14.295Z,2.75
2023-02-11T02:00:26.530Z,2.74
2023-02-11T02:05:39.298Z,2.77
2023-02-11T02:10:46.033Z,2.82
2023-02-11T02:15:55.289Z,2.84
2023-02-11T02:21:26.882Z,2.84
2023-02-11T02:26:58.099Z,2.79
2023-02-11T02:32:38.079Z,2.79
2023-02-11T02:37:53.297Z,2.83
2023-02-11T02:42:57.978Z,2.85
2023-02-11T02:48:01.414Z,2.84
2023-02-11T02:53:23.631Z,2.81
2023-02-11T02:58:41.917Z,2.77
2023-02-11T03:04:11.415Z,2.78
2023-02-11T03:09:28.378Z,2.83
2023-02-11T03:14:34.352Z,2.88
2023-02-11T03:19:43.955Z,2.90
2023-02-11T03:24:48.108Z,2.87
2023-02-11T03:30:12.728Z,2.86
2023-02-11T03:35:26.475Z,2.88
2023-02-11T03:40:35.528Z,2.91
2023-02-11T03:45:39.896Z,2.88
2023-02-11T03:50:57.099Z,2.85
2023-02-11T03:56:24.552Z,2.81
2023-02-11T04:01:27.640Z,2.81
2023-02-11T04:06:31.052Z,2.84
2023-02-11T04:11:34.351Z,2.86
2023-02-11T04:16:37.633Z,2.85
2023-02-11T04:21:41.093Z,2.80
2023-02-11T04:26:44.539Z,2.73
2023-02-11T04:31:48.569Z,2.68
2023-02-11T04:36:52.080Z,2.68
2023-02-11T04:41:57.999Z,2.70
2023-02-11T04:47:08.159Z,2.72
2023-02-11T04:52:11.714Z,2.71
2023-02-11T04:57:25.482Z,2.66
2023-02-11T05:02:28.854Z,2.62
2023-02-11T05:07:32.637Z,2.62
2023-02-11T05:12:35.945Z,2.67
2023-02-11T05:17:39.256Z,2.72
2023-02-11T05:22:42.586Z,2.73
2023-02-11T05:27:45.752Z,2.72
2023-02-11T05:32:49.026Z,2.68
2023-02-11T05:37:52.315Z,2.67
2023-02-11T05:42:55.748Z,2.72
2023-02-11T05:47:58.805Z,2.75
2023-02-11T05:53:01.995Z,2.78
2023-02-11T05:58:07.088Z,2.78
2023-02-11T06:03:10.396Z,2.76
2023-02-11T06:08:13.556Z,2.77
2023-02-11T06:13:18.874Z,2.82
2023-02-11T06:18:21.971Z,2.86
2023-02-11T06:23:25.159Z,2.87
2023-02-11T06:28:29.599Z,2.87
2023-02-11T06:33:33.875Z,2.86
2023-02-11T06:38:37.099Z,2.86
2023-02-11T06:43:41.668Z,2.89
2023-02-11T06:48:45.168Z,2.95
2023-02-11T06:53:48.810Z,3.02
2023-02-11T06:58:55.578Z,3.08
2023-02-11T07:03:58.894Z,3.10
2023-02-11T07:09:11.154Z,3.09
2023-02-11T07:14:14.449Z,3.05
2023-02-11T07:19:17.726Z,3.04
2023-02-11T07:24:21.067Z,3.06
2023-02-11T07:29:24.229Z,3.07
2023-02-11T07:34:27.515Z,3.07
2023-02-11T07:39:30.886Z,3.02
2023-02-11T07:44:34.800Z,2.96
2023-02-11T07:49:37.931Z,2.94
2023-02-11T07:54:41.524Z,2.98
2023-02-11T07:59:44.729Z,3.01
2023-02-11T08:04:48.063Z,3.01
2023-02-11T08:09:51.396Z,2.98
2023-02-11T08:15:05.100Z,2.92
2023-02-11T08:20:08.799Z,2.90
2023-02-11T08:25:11.961Z,2.92
2023-02-11T08:30:15.320Z,2.95
2023-02-11T08:35:18.998Z,2.96
2023-02-11T08:40:32.583Z,2.94
2023-02-11T08:45:35.747Z,2.90
2023-02-11T08:50:40.018Z,2.88
2023-02-11T08:55:54.634Z,2.91
2023-02-11T09:00:58.470Z,3.02
2023-02-11T09:06:23.582Z,3.16
2023-02-11T09:11:35.086Z,3.18
2023-02-11T09:16:38.233Z,3.16
2023-02-11T09:21:41.640Z,3.15
2023-02-11T09:26:45.091Z,3.19
2023-02-11T09:31:48.378Z,3.24
2023-02-11T09:36:51.757Z,3.24
2023-02-11T09:42:06.897Z,3.25
2023-02-11T09:47:26.639Z,3.27
2023-02-11T09:52:49.483Z,3.30
2023-02-11T09:57:52.574Z,3.31
2023-02-11T10:03:20.861Z,3.28
2023-02-11T10:08:46.774Z,3.24
2023-02-11T10:13:52.833Z,3.26
2023-02-11T10:19:15.753Z,3.33
2023-02-11T10:24:20.169Z,3.39
2023-02-11T10:29:42.256Z,3.38
2023-02-11T10:34:48.826Z,3.34
2023-02-11T10:39:51.988Z,3.28
2023-02-11T10:45:00.669Z,3.29
2023-02-11T10:50:25.463Z,3.29
2023-02-11T10:55:29.339Z,3.35
2023-02-11T11:00:43.721Z,3.39
2023-02-11T11:05:53.460Z,3.41
2023-02-11T11:11:09.121Z,3.40
2023-02-11T11:16:12.657Z,3.41
2023-02-11T11:21:29.696Z,3.45
2023-02-11T11:26:43.988Z,3.49
2023-02-11T11:31:52.230Z,3.52
2023-02-11T11:36:57.409Z,3.51
2023-02-11T11:42:05.678Z,3.53
2023-02-11T11:47:22.325Z,3.57
2023-02-11T11:52:37.539Z,3.60
2023-02-11T11:57:41.100Z,3.60
2023-02-11T12:03:18.170Z,3.61
2023-02-11T12:08:42.238Z,3.66
2023-02-11T12:14:12.824Z,3.70
2023-02-11T12:19:37.914Z,3.72
2023-02-11T12:25:02.943Z,3.73
2023-02-11T12:30:15.167Z,3.73
2023-02-11T12:35:30.480Z,3.78
2023-02-11T12:40:44.435Z,3.84
2023-02-11T12:46:19.256Z,3.85
2023-02-11T12:52:08.549Z,3.85
2023-02-11T12:57:28.542Z,3.89
2023-02-11T13:02:54.952Z,3.98
2023-02-11T13:08:09.783Z,4.08
2023-02-11T13:13:19.115Z,4.10
2023-02-11T13:18:45.028Z,4.15
2023-02-11T13:24:13.200Z,4.21
2023-02-11T13:29:56.235Z,4.27
2023-02-11T13:34:59.391Z,4.27
2023-02-11T13:40:07.647Z,4.27
2023-02-11T13:45:26.959Z,4.28
2023-02-11T13:50:37.419Z,4.31
2023-02-11T13:55:46.292Z,4.34
2023-02-11T14:00:52.199Z,4.34
2023-02-11T14:06:40.108Z,4.32
2023-02-11T14:11:49.831Z,4.33
2023-02-11T14:16:59.652Z,4.33
2023-02-11T14:22:26.785Z,4.35
2023-02-11T14:27:49.068Z,4.35
2023-02-11T14:33:16.636Z,4.33
2023-02-11T14:38:53.908Z,4.34
2023-02-11T14:44:01.326Z,4.36
2023-02-11T14:49:05.785Z,4.38
2023-02-11T14:54:19.118Z,4.36
2023-02-11T14:59:23.079Z,4.37
2023-02-11T15:04:29.378Z,4.38
2023-02-11T15:09:45.723Z,4.41
2023-02-11T15:14:51.913Z,4.40
2023-02-11T15:20:00.184Z,4.40
2023-02-11T15:25:14.859Z,4.40
2023-02-11T15:30:25.482Z,4.44
2023-02-11T15:35:32.923Z,4.44
2023-02-11T15:40:37.731Z,4.43
2023-02-11T15:45:52.656Z,4.43
2023-02-11T15:50:59.223Z,4.46
2023-02-11T15:56:11.929Z,4.49
2023-02-11T16:01:15.408Z,4.51
2023-02-11T16:06:28.090Z,4.51
2023-02-11T16:11:35.198Z,4.47
2023-02-11T16:16:38.906Z,4.48
2023-02-11T16:21:45.500Z,4.52
2023-02-11T16:26:54.619Z,4.59
2023-02-11T16:32:22.676Z,4.61
2023-02-11T16:37:26.360Z,4.62
2023-02-11T16:42:29.550Z,4.63
2023-02-11T16:47:35.001Z,4.67
2023-02-11T16:52:58.442Z,4.70
2023-02-11T16:58:02.064Z,4.71
2023-02-11T17:03:08.246Z,4.73
2023-02-11T17:08:12.159Z,4.76
2023-02-11T17:13:15.335Z,4.82
2023-02-11T17:18:18.782Z,4.83
2023-02-11T17:23:21.973Z,4.81
2023-02-11T17:28:25.335Z,4.82
2023-02-11T17:33:28.905Z,4.84
2023-02-11T17:38:32.176Z,4.86
2023-02-11T17:43:35.574Z,4.87
2023-02-11T17:48:39.202Z,4.85
2023-02-11T17:53:42.593Z,4.85
2023-02-11T17:58:46.256Z,4.88
2023-02-11T18:03:49.408Z,4.94
2023-02-11T18:08:52.842Z,4.98
2023-02-11T18:13:56.934Z,4.95
2023-02-11T18:19:00.152Z,4.91
2023-02-11T18:24:06.711Z,4.91
2023-02-11T18:29:10.643Z,4.94
2023-02-11T18:34:14.129Z,4.98
2023-02-11T18:39:19.648Z,5.01
2023-02-11T18:44:24.853Z,5.00
2023-02-11T18:49:28.400Z,5.01
2023-02-11T18:54:31.803Z,5.05
2023-02-11T18:59:34.998Z,5.08
2023-02-11T19:04:38.460Z,5.09
2023-02-11T19:09:41.982Z,5.10
2023-02-11T19:14:45.195Z,5.11
2023-02-11T19:19:48.534Z,5.13
2023-02-11T19:24:51.712Z,5.13
2023-02-11T19:29:55.134Z,5.16
2023-02-11T19:34:58.237Z,5.19
2023-02-11T19:40:01.561Z,5.23
2023-02-11T19:45:29.423Z,5.23
2023-02-11T19:50:51.561Z,5.25
2023-02-11T19:55:55.094Z,5.30
2023-02-11T20:01:08.952Z,5.36
2023-02-11T20:06:14.868Z,5.37
2023-02-11T20:11:18.466Z,5.39
2023-02-11T20:17:02.268Z,5.44
2023-02-11T20:22:05.419Z,5.45
2023-02-11T20:27:32.523Z,5.41
2023-02-11T20:32:41.134Z,5.40
2023-02-11T20:37:44.963Z,5.41
2023-02-11T20:43:50.263Z,5.44
2023-02-11T20:48:56.316Z,5.45
2023-02-11T20:54:00.870Z,5.42
2023-02-11T20:59:06.347Z,5.42
2023-02-11T21:04:25.101Z,5.45
2023-02-11T21:09:33.382Z,5.44
2023-02-11T21:14:45.150Z,5.42
2023-02-11T21:19:55.009Z,5.42
2023-02-11T21:36:34.173Z,5.44
2023-02-11T21:41:37.447Z,5.46
2023-02-11T21:46:41.014Z,5.46
2023-02-11T21:51:44.417Z,5.43
2023-02-11T21:56:50.594Z,5.31
2023-02-11T22:01:54.008Z,5.17
2023-02-11T22:06:57.176Z,5.07
2023-02-11T22:12:00.334Z,4.95
2023-02-11T22:17:04.013Z,4.85
2023-02-11T22:22:08.219Z,4.79
2023-02-11T22:27:12.281Z,4.76
2023-02-11T22:32:17.933Z,4.72
2023-02-11T22:37:21.185Z,4.65
2023-02-11T22:42:24.412Z,4.57
2023-02-11T22:47:27.655Z,4.57
2023-02-11T22:52:30.886Z,4.57
2023-02-11T22:57:34.106Z,4.55
2023-02-11T23:02:37.481Z,4.47
2023-02-11T23:07:40.706Z,4.33
2023-02-11T23:12:44.252Z,4.22
2023-02-11T23:17:47.462Z,4.15
2023-02-11T23:22:50.635Z,4.03
2023-02-11T23:27:53.826Z,3.87
2023-02-11T23:32:56.945Z,3.75
2023-02-11T23:38:00.499Z,3.67
2023-02-11T23:43:03.769Z,3.58
2023-02-11T23:48:07.083Z,3.42
2023-02-11T23:53:11.567Z,3.30
2023-02-11T23:58:15.339Z,3.24
